Chanhassen, MN (55317)

9:37 AM CST on February 14, 2016 (GMT -0600)
Marsh Drive | | Change Station
CLOSE
Current Station
Personal Weather Station
Location: Chanhassen, MN
Elevation: 915 ft
Nearby Weather Stations

Elev 915 ft 44.85 °N, 93.53 °W | Updated 14 seconds ago

Overcast
Overcast
13.6 °F
Feels Like 14 °F
N
1.0
Wind Variable Wind from SE
Gusts 3.0 mph

Today
High -- | Low -- °F
--% Chance of Precip.
Yesterday
High -- | Low -- °F
Precip. -- in
Pressure 30.02 in
Visibility 1.2 miles
Clouds Mostly Cloudy 2200 ft
Overcast 4000 ft
Windchill 14 °F
Dew Point 9 °F
Humidity 83%
Rainfall 0.00 in
Snow Depth Not available.
7:16 AM 5:40 PM
Waxing Crescent, 42% visible
SPECI KFCM 141523Z 14014KT 1 1/4SM -SN BKN022 OVC040 M09/M13 A3002 RMK AO2 SNB1456 P0000 T10941133
Pressure 30.02 in
Visibility 1.2 miles
Clouds Mostly Cloudy 2200 ft
Overcast 4000 ft
Windchill 14 °F
Dew Point 9 °F
Humidity 83%
Rainfall 0.00 in
Snow Depth Not available.
7:16 AM 5:40 PM
Waxing Crescent, 42% visible
SPECI KFCM 141523Z 14014KT 1 1/4SM -SN BKN022 OVC040 M09/M13 A3002 RMK AO2 SNB1456 P0000 T10941133

10-Day Weather Forecast

Almanac

Astronomy

Feb. 14, 2016 Rise Set
Actual Time
Civil Twilight
Nautical Twilight
Astronomical Twilight
Moon
Length of Visible Light
Length of Day
Tomorrow will be .
, % of the Moon is Illuminated

Today's Extremes

State Highs State Lows

Community

WunderPhotos

Upload Photos

1,892,795 photos uploaded!

WunderBlog® & News

Nearby

Air Quality

  Air Quality AQ Index Pollutant
Not available.

Snow Depth

Station Depth Elevation

Earthquake Activity

City Distance Mag. Time & Date
Minimum magnitude displayed is 2.5.

Coastal Water Temperatures

Place Temperature

Stations

Nearby Weather Stations

Station Location Temp. Windchill Dew Point Humidity Wind Precip. Elev Updated Type
                   

Watches & Warnings

There are currently no watches in effect.